createdAt,value
2019-06-08T00:03:49.639Z,13.80
2019-06-08T00:09:51.219Z,13.70
2019-06-08T00:15:52.797Z,13.80
2019-06-08T00:21:55.936Z,13.70
2019-06-08T00:27:57.545Z,13.80
2019-06-08T00:34:00.998Z,13.60
2019-06-08T00:40:06.042Z,13.60
2019-06-08T00:46:07.643Z,13.70
2019-06-08T00:52:10.343Z,13.50
2019-06-08T00:58:11.973Z,13.40
2019-06-08T01:04:13.680Z,13.50
2019-06-08T01:10:16.291Z,13.40
2019-06-08T01:16:18.818Z,13.40
2019-06-08T01:22:21.627Z,13.40
2019-06-08T01:28:24.137Z,13.40
2019-06-08T01:34:27.006Z,13.30
2019-06-08T01:40:29.561Z,13.30
2019-06-08T01:46:32.427Z,13.20
2019-06-08T01:52:34.637Z,13.30
2019-06-08T01:58:36.207Z,13.20
2019-06-08T02:04:37.762Z,13.10
2019-06-08T02:10:39.312Z,13.00
2019-06-08T02:16:40.817Z,12.90
2019-06-08T02:22:42.391Z,12.90
2019-06-08T02:28:43.905Z,12.80
2019-06-08T02:34:45.373Z,12.90
2019-06-08T02:40:47.011Z,12.90
2019-06-08T02:46:48.623Z,12.90
2019-06-08T02:52:50.928Z,12.80
2019-06-08T02:58:56.284Z,12.80
2019-06-08T03:05:01.060Z,12.80
2019-06-08T03:11:03.687Z,12.70
2019-06-08T03:17:06.329Z,12.80
2019-06-08T03:23:09.252Z,12.70
2019-06-08T03:29:10.996Z,12.80
2019-06-08T03:35:13.724Z,12.90
2019-06-08T03:41:15.303Z,13.00
2019-06-08T03:47:16.759Z,13.00
2019-06-08T03:53:18.321Z,12.90
2019-06-08T03:59:19.930Z,13.00
2019-06-08T04:05:21.624Z,13.10
2019-06-08T04:11:23.778Z,13.30
2019-06-08T04:17:26.431Z,13.30
2019-06-08T04:23:28.134Z,13.40
2019-06-08T04:29:29.754Z,13.40
2019-06-08T04:35:31.478Z,13.50
2019-06-08T04:41:33.076Z,13.40
2019-06-08T04:47:34.766Z,13.30
2019-06-08T04:53:38.565Z,13.40
2019-06-08T04:59:41.265Z,13.60
2019-06-08T05:05:45.197Z,13.50
2019-06-08T05:11:47.501Z,13.60
2019-06-08T05:17:49.713Z,13.70
2019-06-08T05:23:58.503Z,13.70
2019-06-08T05:29:55.029Z,13.90
2019-06-08T05:35:56.816Z,14.10
2019-06-08T05:41:58.542Z,14.20
2019-06-08T05:48:00.243Z,14.40
2019-06-08T05:54:03.070Z,14.60
2019-06-08T06:00:11.000Z,14.70
2019-06-08T06:06:14.255Z,15.10
2019-06-08T06:12:15.824Z,15.30
2019-06-08T06:18:17.497Z,15.20
2019-06-08T06:24:19.282Z,14.80
2019-06-08T06:30:21.106Z,14.80
2019-06-08T06:36:22.929Z,14.60
2019-06-08T06:42:25.187Z,14.80
2019-06-08T06:48:27.223Z,14.90
2019-06-08T06:54:28.847Z,15.20
2019-06-08T07:00:32.237Z,15.40
2019-06-08T07:06:33.930Z,15.40
2019-06-08T07:12:35.875Z,15.80
2019-06-08T07:18:37.646Z,15.70
2019-06-08T07:24:39.207Z,15.70
2019-06-08T07:30:43.795Z,15.90
2019-06-08T07:36:45.369Z,15.90
2019-06-08T07:42:47.858Z,16.30
2019-06-08T07:48:50.501Z,16.50
2019-06-08T07:54:52.851Z,16.60
2019-06-08T08:01:02.367Z,17.00
2019-06-08T08:06:59.231Z,16.80
2019-06-08T08:13:03.041Z,17.00
2019-06-08T08:19:04.814Z,16.80
2019-06-08T08:25:08.505Z,17.00
2019-06-08T08:31:11.364Z,17.20
2019-06-08T08:37:13.895Z,17.40
2019-06-08T08:43:17.677Z,17.70
2019-06-08T08:49:19.228Z,18.00
2019-06-08T08:55:21.151Z,17.60
2019-06-08T09:01:23.873Z,18.20
2019-06-08T09:07:27.514Z,18.20
2019-06-08T09:13:29.174Z,17.90
2019-06-08T09:19:30.904Z,17.90
2019-06-08T09:25:32.815Z,17.90
2019-06-08T09:31:34.586Z,18.40
2019-06-08T09:37:40.787Z,18.40
2019-06-08T09:43:51.096Z,18.30
2019-06-08T09:49:50.685Z,18.30
2019-06-08T09:56:04.543Z,17.90
2019-06-08T10:02:13.089Z,18.20
2019-06-08T10:08:15.225Z,18.70
2019-06-08T10:14:18.734Z,18.90
2019-06-08T10:26:49.377Z,20.00
2019-06-08T10:32:51.173Z,20.70
2019-06-08T10:38:53.125Z,20.10
2019-06-08T10:44:54.852Z,20.50
2019-06-08T10:50:58.545Z,19.50
2019-06-08T10:57:04.133Z,19.90
2019-06-08T11:03:06.716Z,20.30
2019-06-08T11:09:12.683Z,20.80
2019-06-08T11:15:11.930Z,21.00
2019-06-08T11:21:13.782Z,20.90
2019-06-08T11:27:18.685Z,20.40
2019-06-08T11:33:20.345Z,20.50
2019-06-08T11:39:22.160Z,21.40
2019-06-08T11:45:24.095Z,21.10
2019-06-08T11:51:29.623Z,20.80
2019-06-08T11:57:31.489Z,20.70
2019-06-08T12:03:33.487Z,20.40
2019-06-08T12:09:35.880Z,20.40
2019-06-08T12:15:38.581Z,20.10
2019-06-08T12:21:40.204Z,20.80
2019-06-08T12:27:42.038Z,20.60
2019-06-08T12:33:48.627Z,20.60
2019-06-08T12:39:49.398Z,20.70
2019-06-08T12:45:54.739Z,20.70
2019-06-08T12:51:58.370Z,21.10
2019-06-08T12:58:03.566Z,21.10
2019-06-08T13:04:09.513Z,21.00
2019-06-08T13:10:11.303Z,21.10
2019-06-08T13:16:14.598Z,20.80
2019-06-08T13:22:19.325Z,20.70
2019-06-08T13:28:24.999Z,20.80
2019-06-08T13:34:24.438Z,21.70
2019-06-08T13:40:27.228Z,21.60
2019-06-08T13:46:28.941Z,22.20
2019-06-08T13:52:31.090Z,22.40
2019-06-08T13:58:33.315Z,22.40
2019-06-08T14:04:39.454Z,22.40
2019-06-08T14:10:39.600Z,21.60
2019-06-08T14:22:39.037Z,21.40
2019-06-08T14:28:40.607Z,22.10
2019-06-08T14:34:42.239Z,22.10
2019-06-08T14:40:47.558Z,21.70
2019-06-08T14:46:49.359Z,21.50
2019-06-08T14:52:50.937Z,21.60
2019-06-08T14:58:52.520Z,22.00
2019-06-08T15:04:54.140Z,22.00
2019-06-08T15:10:57.840Z,22.20
2019-06-08T15:16:59.426Z,21.90
2019-06-08T15:23:00.923Z,21.40
2019-06-08T15:29:02.840Z,22.50
2019-06-08T15:35:05.077Z,22.20
2019-06-08T15:41:07.841Z,21.60
2019-06-08T15:47:09.381Z,23.30
2019-06-08T15:53:10.905Z,23.00
2019-06-08T15:59:12.363Z,22.80
2019-06-08T16:05:14.087Z,23.90
2019-06-08T16:11:16.005Z,23.40
2019-06-08T16:17:17.900Z,22.10
2019-06-08T16:23:19.610Z,22.90
2019-06-08T16:29:21.396Z,25.50
2019-06-08T16:35:23.106Z,25.70
2019-06-08T16:41:24.880Z,25.80
2019-06-08T16:47:27.021Z,24.10
2019-06-08T16:53:34.134Z,25.40
2019-06-08T16:59:38.585Z,25.60
2019-06-08T17:05:41.569Z,23.60
2019-06-08T17:11:43.778Z,25.20
2019-06-08T17:17:45.669Z,27.20
2019-06-08T17:23:47.524Z,27.30
2019-06-08T17:29:49.286Z,28.40
2019-06-08T17:35:55.451Z,24.20
2019-06-08T17:41:57.149Z,23.70
2019-06-08T17:47:58.917Z,26.50
2019-06-08T17:54:02.596Z,27.70
2019-06-08T18:00:07.274Z,27.90
2019-06-08T18:06:09.707Z,28.00
2019-06-08T18:12:11.460Z,27.90
2019-06-08T18:18:13.213Z,26.10
2019-06-08T18:24:17.478Z,23.20
2019-06-08T18:30:21.874Z,20.50
2019-06-08T18:36:27.534Z,19.00
2019-06-08T18:42:29.290Z,18.10
2019-06-08T18:48:33.512Z,17.70
2019-06-08T18:54:35.409Z,17.60
2019-06-08T19:00:41.939Z,17.40
2019-06-08T19:06:43.770Z,17.10
2019-06-08T19:12:48.144Z,16.80
2019-06-08T19:18:52.744Z,16.50
2019-06-08T19:24:54.420Z,16.30
2019-06-08T19:31:00.612Z,16.20
2019-06-08T19:37:02.227Z,15.90
2019-06-08T19:43:07.514Z,15.80
2019-06-08T19:49:09.347Z,15.40
2019-06-08T19:55:14.287Z,15.40
2019-06-08T20:01:17.961Z,15.30
2019-06-08T20:07:19.113Z,15.20
2019-06-08T20:13:23.290Z,15.20
2019-06-08T20:19:25.016Z,15.10
2019-06-08T20:25:27.869Z,15.00
2019-06-08T20:31:29.734Z,15.10
2019-06-08T20:37:39.296Z,15.10
2019-06-08T20:43:42.608Z,15.10
2019-06-08T20:49:48.908Z,15.00
2019-06-08T20:55:50.804Z,14.90
2019-06-08T21:01:54.378Z,14.90
2019-06-08T21:08:03.344Z,14.70
2019-06-08T21:14:05.168Z,14.70
2019-06-08T21:20:08.539Z,14.70
2019-06-08T21:26:10.280Z,14.40
2019-06-08T21:32:13.301Z,13.90
2019-06-08T21:38:23.381Z,13.50
2019-06-08T21:44:18.112Z,13.50
2019-06-08T21:50:19.606Z,13.50
2019-06-08T21:56:21.106Z,13.40
2019-06-08T22:02:22.775Z,13.00
2019-06-08T22:08:24.808Z,13.00
2019-06-08T22:14:27.320Z,13.10
2019-06-08T22:20:29.258Z,13.10
2019-06-08T22:26:30.903Z,13.10
2019-06-08T22:32:32.796Z,12.90
2019-06-08T22:38:37.293Z,12.70
2019-06-08T22:44:38.942Z,12.70
2019-06-08T22:50:40.638Z,12.70
2019-06-08T22:56:42.760Z,12.70
2019-06-08T23:02:45.803Z,12.70
2019-06-08T23:08:48.101Z,12.50
2019-06-08T23:14:49.933Z,12.50
2019-06-08T23:20:51.607Z,12.40
2019-06-08T23:26:53.110Z,12.30
2019-06-08T23:32:56.521Z,12.20
2019-06-08T23:38:59.145Z,12.00
2019-06-08T23:45:02.181Z,11.70
2019-06-08T23:51:07.730Z,11.40
2019-06-08T23:57:10.107Z,11.00
